Time;durP1;ratioP1;P1;durP2;ratioP2;P2;SDS_P1;SDS_P2;PMS_P1;PMS_P2;Temp;Humidity;BMP_temperature;BMP_pressure;BME280_temperature;BME280_humidity;BME280_pressure;Samples;Min_cycle;Max_cycle;Signal;HPM_P1;HPM_P2
2023/08/30 00:02:18;;;;;;;33.60;26.17;;;14.50;99.90;;;;;;5033497;28;20033;-66
2023/08/30 00:04:44;;;;;;;35.13;26.23;;;14.50;99.90;;;;;;5033793;28;20112;-66
2023/08/30 00:07:10;;;;;;;33.58;26.23;;;14.50;99.90;;;;;;5033171;28;20033;-66
2023/08/30 00:09:36;;;;;;;33.50;26.05;;;14.50;99.90;;;;;;5033679;28;20049;-66
2023/08/30 00:12:03;;;;;;;30.63;23.00;;;14.50;99.90;;;;;;5033722;28;20072;-66
2023/08/30 00:14:28;;;;;;;29.92;22.15;;;14.60;99.90;;;;;;5033751;28;20033;-67
2023/08/30 00:16:54;;;;;;;29.83;23.80;;;14.50;99.90;;;;;;5032606;28;20056;-68
2023/08/30 00:19:20;;;;;;;26.02;20.52;;;14.50;99.90;;;;;;5033339;28;20113;-66
2023/08/30 00:21:46;;;;;;;27.27;21.55;;;14.50;99.90;;;;;;5032956;28;20032;-66
2023/08/30 00:24:11;;;;;;;33.72;24.05;;;14.50;99.90;;;;;;5033672;28;20387;-67
2023/08/30 00:26:37;;;;;;;36.55;24.67;;;14.50;99.90;;;;;;5036658;28;20029;-67
2023/08/30 00:29:03;;;;;;;27.00;21.52;;;14.50;99.90;;;;;;5037226;28;20028;-66
2023/08/30 00:31:28;;;;;;;33.97;23.35;;;14.50;99.90;;;;;;5036716;28;20080;-66
2023/08/30 00:33:54;;;;;;;28.67;23.00;;;14.50;99.90;;;;;;5036267;28;20475;-66
2023/08/30 00:36:20;;;;;;;27.48;21.25;;;14.50;99.90;;;;;;5036961;28;20079;-67
2023/08/30 00:38:46;;;;;;;31.27;23.13;;;14.50;99.90;;;;;;5036184;28;20032;-66
2023/08/30 00:41:11;;;;;;;28.98;22.48;;;14.50;99.90;;;;;;5036987;28;20041;-66
2023/08/30 00:43:37;;;;;;;27.33;20.52;;;14.50;99.90;;;;;;5036636;28;20463;-66
2023/08/30 00:46:03;;;;;;;31.00;23.08;;;14.50;99.90;;;;;;5036298;28;20109;-66
2023/08/30 00:48:29;;;;;;;27.38;20.75;;;14.50;99.90;;;;;;5036227;28;20037;-67
2023/08/30 00:50:55;;;;;;;28.23;21.67;;;14.50;99.90;;;;;;5036337;28;20021;-66
2023/08/30 00:53:20;;;;;;;30.05;22.38;;;14.40;99.90;;;;;;5036044;28;20530;-66
2023/08/30 00:55:46;;;;;;;31.00;21.63;;;14.50;99.90;;;;;;5036720;28;20033;-66
2023/08/30 00:58:12;;;;;;;31.92;22.80;;;14.50;99.90;;;;;;5036143;28;20033;-66
2023/08/30 01:00:38;;;;;;;29.02;21.63;;;14.50;99.90;;;;;;5035697;28;20028;-67
2023/08/30 01:03:05;;;;;;;28.63;20.83;;;14.40;99.90;;;;;;5036294;28;20071;-66
2023/08/30 01:05:31;;;;;;;26.95;20.30;;;14.40;99.90;;;;;;5036464;28;20399;-67
2023/08/30 01:07:57;;;;;;;29.20;21.67;;;14.40;99.90;;;;;;5036524;28;20071;-67
2023/08/30 01:10:36;;;;;;;26.55;19.73;;;14.40;99.90;;;;;;5035995;28;20490;-66
2023/08/30 01:13:09;;;;;;;23.70;18.23;;;14.30;99.90;;;;;;5035965;28;20033;-66
2023/08/30 01:15:38;;;;;;;24.63;20.00;;;14.20;99.90;;;;;;5036256;28;20025;-74
2023/08/30 01:18:06;;;;;;;25.45;19.60;;;14.10;99.90;;;;;;5035141;28;20138;-66
2023/08/30 01:20:36;;;;;;;26.33;19.90;;;14.10;99.90;;;;;;5036227;28;20026;-66
2023/08/30 01:23:42;;;;;;;30.23;21.60;;;14.00;99.90;;;;;;5035738;28;20033;-66
2023/08/30 01:26:23;;;;;;;23.02;19.00;;;13.90;99.90;;;;;;5035108;28;20024;-66
2023/08/30 01:28:50;;;;;;;24.48;18.58;;;13.80;99.90;;;;;;5035814;28;20605;-66
2023/08/30 01:31:16;;;;;;;23.00;18.38;;;13.70;99.90;;;;;;5034925;28;20032;-66
2023/08/30 01:33:43;;;;;;;22.25;18.77;;;13.60;99.90;;;;;;5036008;28;20570;-66
2023/08/30 01:36:09;;;;;;;23.50;18.52;;;13.50;99.90;;;;;;5035741;28;20061;-76
2023/08/30 01:38:36;;;;;;;26.77;20.58;;;13.50;99.90;;;;;;5035054;28;20083;-66
2023/08/30 01:41:02;;;;;;;25.95;19.92;;;13.40;99.90;;;;;;5035585;28;20079;-66
2023/08/30 01:43:30;;;;;;;26.73;20.05;;;13.30;99.90;;;;;;5035374;28;20075;-66
2023/08/30 01:45:56;;;;;;;23.65;19.33;;;13.20;99.90;;;;;;5035518;28;20034;-66
2023/08/30 01:48:23;;;;;;;22.85;19.10;;;13.20;99.90;;;;;;5035773;28;20040;-66
2023/08/30 01:50:49;;;;;;;26.50;19.58;;;13.10;99.90;;;;;;5034852;28;20415;-66
2023/08/30 01:53:15;;;;;;;24.55;19.92;;;13.00;99.90;;;;;;5035303;28;20034;-66
2023/08/30 01:55:42;;;;;;;27.02;21.48;;;13.00;99.90;;;;;;5035119;28;20029;-66
2023/08/30 01:58:08;;;;;;;24.23;19.58;;;12.90;99.90;;;;;;5035015;28;20030;-66
2023/08/30 02:00:35;;;;;;;28.25;21.80;;;12.80;99.90;;;;;;5034892;28;20539;-66
2023/08/30 02:03:08;;;;;;;28.15;21.17;;;12.80;99.90;;;;;;5035301;28;20028;-66
2023/08/30 02:05:37;;;;;;;25.60;20.02;;;12.70;99.90;;;;;;5034623;28;20021;-66
2023/08/30 02:08:14;;;;;;;27.65;20.58;;;12.70;99.90;;;;;;5034811;28;20033;-66
2023/08/30 02:10:44;;;;;;;28.38;20.50;;;12.70;99.90;;;;;;5035288;28;20474;-67
2023/08/30 02:13:12;;;;;;;32.55;20.60;;;12.60;99.90;;;;;;5035259;28;20372;-66
2023/08/30 02:15:41;;;;;;;28.02;21.27;;;12.50;99.90;;;;;;5035215;28;20032;-66
2023/08/30 02:18:07;;;;;;;27.65;20.85;;;12.60;99.90;;;;;;5033726;28;20084;-66
2023/08/30 02:20:32;;;;;;;32.80;22.52;;;12.50;99.90;;;;;;5034824;28;20061;-66
2023/08/30 02:22:59;;;;;;;30.73;23.25;;;12.50;99.90;;;;;;5035092;28;20459;-66
2023/08/30 02:25:25;;;;;;;27.67;21.80;;;12.50;99.90;;;;;;5034277;28;20032;-66
2023/08/30 02:27:50;;;;;;;28.65;21.05;;;12.40;99.90;;;;;;5034480;28;20029;-66
2023/08/30 02:30:16;;;;;;;30.25;21.83;;;12.40;99.90;;;;;;5034151;28;20100;-66
2023/08/30 02:32:41;;;;;;;30.35;21.90;;;12.40;99.90;;;;;;5034391;28;20041;-70
2023/08/30 02:35:07;;;;;;;28.20;22.15;;;12.40;99.90;;;;;;5034429;28;20029;-66
2023/08/30 02:37:33;;;;;;;36.03;24.73;;;12.30;99.90;;;;;;5034388;28;20495;-66
2023/08/30 02:39:59;;;;;;;32.78;24.55;;;12.40;99.90;;;;;;5034601;28;20075;-66
2023/08/30 02:42:26;;;;;;;31.08;23.02;;;12.40;99.90;;;;;;5034700;28;20029;-66
2023/08/30 02:44:51;;;;;;;29.70;23.55;;;12.40;99.90;;;;;;5034620;28;20053;-66
2023/08/30 02:47:17;;;;;;;30.95;23.50;;;12.40;99.90;;;;;;5033610;28;20131;-66
2023/08/30 02:49:43;;;;;;;34.17;23.48;;;12.40;99.90;;;;;;5034157;28;20036;-66
2023/08/30 02:52:08;;;;;;;34.15;24.08;;;12.40;99.90;;;;;;5033986;28;20030;-66
2023/08/30 02:54:34;;;;;;;34.70;23.98;;;12.30;99.90;;;;;;5033969;28;20060;-66
2023/08/30 02:57:00;;;;;;;29.08;21.92;;;12.30;99.90;;;;;;5033545;28;20513;-66
2023/08/30 02:59:26;;;;;;;34.85;25.35;;;12.20;99.90;;;;;;5034375;28;20033;-66
2023/08/30 03:01:51;;;;;;;34.45;24.65;;;12.20;99.90;;;;;;5034474;28;20037;-66
2023/08/30 03:04:17;;;;;;;33.10;23.70;;;12.20;99.90;;;;;;5033864;28;20029;-66
2023/08/30 03:06:43;;;;;;;32.25;23.90;;;12.20;99.90;;;;;;5034086;28;20072;-66
2023/08/30 03:09:08;;;;;;;31.35;22.30;;;12.10;99.90;;;;;;5034060;28;20456;-66
2023/08/30 03:11:34;;;;;;;31.15;23.10;;;12.00;99.90;;;;;;5034249;28;20037;-66
2023/08/30 03:14:00;;;;;;;31.90;23.70;;;12.00;99.90;;;;;;5033749;28;20045;-66
2023/08/30 03:16:25;;;;;;;31.70;23.27;;;12.00;99.90;;;;;;5033096;28;20049;-74
2023/08/30 03:18:51;;;;;;;32.25;24.48;;;12.00;99.90;;;;;;5033019;28;20120;-66
2023/08/30 03:21:17;;;;;;;32.30;24.23;;;11.90;99.90;;;;;;5033974;28;20029;-66
2023/08/30 03:23:42;;;;;;;30.15;22.08;;;11.90;99.90;;;;;;5033829;28;20036;-66
2023/08/30 03:26:12;;;;;;;31.08;22.40;;;11.90;99.90;;;;;;5034109;28;20060;-66
2023/08/30 03:28:38;;;;;;;32.80;23.42;;;11.90;99.90;;;;;;5034128;28;20364;-66
2023/08/30 03:31:20;;;;;;;32.17;24.13;;;11.80;99.90;;;;;;5033691;28;20041;-66
2023/08/30 03:33:47;;;;;;;37.25;25.33;;;11.80;99.90;;;;;;5033552;28;20080;-66
2023/08/30 03:36:15;;;;;;;37.65;26.20;;;11.80;99.90;;;;;;5033590;28;20065;-66
2023/08/30 03:38:41;;;;;;;36.90;25.55;;;11.80;99.90;;;;;;5033208;28;20025;-66
2023/08/30 03:41:07;;;;;;;40.55;26.75;;;11.80;99.90;;;;;;5033315;28;20024;-66
2023/08/30 03:43:33;;;;;;;34.33;24.38;;;11.80;99.90;;;;;;5033917;28;20026;-66
2023/08/30 03:46:01;;;;;;;34.50;23.75;;;11.80;99.90;;;;;;5033026;28;20551;-66
2023/08/30 03:48:27;;;;;;;36.33;26.33;;;11.80;99.90;;;;;;5033223;28;20057;-66
2023/08/30 03:50:54;;;;;;;35.13;25.35;;;11.80;99.90;;;;;;5033520;28;20447;-66
2023/08/30 03:53:20;;;;;;;36.65;25.52;;;11.80;99.90;;;;;;5033401;28;20022;-66
2023/08/30 03:55:45;;;;;;;35.22;26.10;;;11.80;99.90;;;;;;5032902;28;20493;-67
2023/08/30 03:58:11;;;;;;;36.53;26.33;;;11.80;99.90;;;;;;5033366;28;20033;-66
2023/08/30 04:00:38;;;;;;;37.50;27.75;;;11.80;99.90;;;;;;5036273;28;20033;-66
2023/08/30 04:03:04;;;;;;;43.20;28.40;;;11.80;99.90;;;;;;5036882;28;20037;-67
2023/08/30 04:05:33;;;;;;;41.67;28.55;;;11.70;99.90;;;;;;5037688;28;20040;-66
2023/08/30 04:08:00;;;;;;;47.90;31.02;;;11.70;99.90;;;;;;5037131;28;20030;-66
2023/08/30 04:10:26;;;;;;;39.60;28.17;;;11.70;99.90;;;;;;5037474;28;20026;-67
2023/08/30 04:12:52;;;;;;;38.33;26.73;;;11.70;99.90;;;;;;5037440;28;20033;-66
2023/08/30 04:15:17;;;;;;;43.67;30.73;;;11.70;99.90;;;;;;5037452;28;20037;-66
2023/08/30 04:17:43;;;;;;;43.30;30.10;;;11.60;99.90;;;;;;5036444;28;20042;-66
2023/08/30 04:20:10;;;;;;;34.70;25.67;;;11.60;99.90;;;;;;5036084;28;20462;-66
2023/08/30 04:22:36;;;;;;;37.75;26.65;;;11.60;99.90;;;;;;5036893;28;20094;-66
2023/08/30 04:25:02;;;;;;;36.95;26.17;;;11.50;99.90;;;;;;5037032;28;20021;-66
2023/08/30 04:27:27;;;;;;;41.17;27.33;;;11.50;99.90;;;;;;5036739;28;20033;-66
2023/08/30 04:29:53;;;;;;;38.25;26.92;;;11.60;99.90;;;;;;5036773;28;20069;-66
2023/08/30 04:32:18;;;;;;;37.05;25.80;;;11.60;99.90;;;;;;5036913;28;20418;-66
2023/08/30 04:34:44;;;;;;;39.67;26.85;;;11.60;99.90;;;;;;5036617;28;20446;-66
2023/08/30 04:37:10;;;;;;;35.63;26.02;;;11.60;99.90;;;;;;5036953;28;20036;-66
2023/08/30 04:39:35;;;;;;;41.15;27.27;;;11.60;99.90;;;;;;5036875;28;20026;-66
2023/08/30 04:42:02;;;;;;;41.42;27.90;;;11.60;99.90;;;;;;5035800;28;20112;-66
2023/08/30 04:44:28;;;;;;;42.65;28.33;;;11.60;99.90;;;;;;5036946;28;20545;-66
2023/08/30 04:46:54;;;;;;;36.35;26.25;;;11.50;99.90;;;;;;5036866;28;20060;-66
2023/08/30 04:49:20;;;;;;;37.10;25.98;;;11.50;99.90;;;;;;5036298;28;20480;-67
2023/08/30 04:51:47;;;;;;;41.22;28.58;;;11.60;99.90;;;;;;5036730;28;20022;-66
2023/08/30 04:54:13;;;;;;;46.53;31.20;;;11.60;99.90;;;;;;5036244;28;20041;-66
2023/08/30 04:56:39;;;;;;;42.38;30.30;;;11.60;99.90;;;;;;5036372;28;20077;-66
2023/08/30 04:59:05;;;;;;;49.38;32.72;;;11.60;99.90;;;;;;5035724;28;20065;-66
2023/08/30 05:01:30;;;;;;;58.08;35.03;;;11.60;99.90;;;;;;5036368;28;20034;-66
2023/08/30 05:03:56;;;;;;;42.92;28.95;;;11.60;99.90;;;;;;5036609;28;20373;-66
2023/08/30 05:06:22;;;;;;;46.30;29.02;;;11.60;99.90;;;;;;5035975;28;20467;-66
2023/08/30 05:08:47;;;;;;;50.00;31.42;;;11.70;99.90;;;;;;5036178;28;20021;-66
2023/08/30 05:11:13;;;;;;;43.10;29.52;;;11.70;99.90;;;;;;5036067;28;20422;-66
2023/08/30 05:13:39;;;;;;;43.90;29.10;;;11.70;99.90;;;;;;5036364;28;20033;-66
2023/08/30 05:16:05;;;;;;;44.90;29.40;;;11.70;99.90;;;;;;5035090;28;20026;-66
2023/08/30 05:18:30;;;;;;;50.13;30.23;;;11.70;99.90;;;;;;5035784;28;20033;-66
2023/08/30 05:20:56;;;;;;;40.90;27.13;;;11.80;99.90;;;;;;5036199;28;20032;-66
2023/08/30 05:23:21;;;;;;;38.33;27.25;;;11.80;99.90;;;;;;5035450;28;20029;-67
2023/08/30 05:25:47;;;;;;;48.33;29.98;;;11.90;99.90;;;;;;5035609;28;20030;-66
2023/08/30 05:28:13;;;;;;;43.40;29.08;;;12.00;99.90;;;;;;5035924;28;20112;-66
2023/08/30 05:30:44;;;;;;;52.10;32.47;;;12.10;99.90;;;;;;5035132;28;20121;-67
2023/08/30 05:33:10;;;;;;;53.15;33.22;;;12.20;99.90;;;;;;5035796;28;20022;-66
2023/08/30 05:35:35;;;;;;;46.53;31.15;;;12.20;99.90;;;;;;5035413;28;20033;-66
2023/08/30 05:38:01;;;;;;;43.90;29.98;;;12.30;99.90;;;;;;5035449;28;20037;-66
2023/08/30 05:40:26;;;;;;;48.95;30.17;;;12.30;99.90;;;;;;5035602;28;20021;-75
2023/08/30 05:42:54;;;;;;;51.20;31.63;;;12.50;99.90;;;;;;5034933;28;20475;-66
2023/08/30 05:45:20;;;;;;;48.83;31.80;;;12.60;99.90;;;;;;5035728;28;20029;-66
2023/08/30 05:47:46;;;;;;;40.53;28.73;;;12.70;99.90;;;;;;5035315;28;20033;-66
2023/08/30 05:50:11;;;;;;;35.58;25.05;;;12.70;99.90;;;;;;5035689;28;20040;-66
2023/08/30 05:52:41;;;;;;;37.53;25.63;;;12.90;99.90;;;;;;5035317;28;20034;-66
2023/08/30 05:55:07;;;;;;;42.88;29.55;;;13.00;99.90;;;;;;5035418;28;20040;-66
2023/08/30 05:57:33;;;;;;;43.25;29.27;;;13.10;99.90;;;;;;5034240;28;20116;-66
2023/08/30 06:00:00;;;;;;;36.95;27.45;;;13.50;99.90;;;;;;5035354;28;20112;-66
2023/08/30 06:02:25;;;;;;;39.15;26.35;;;13.70;99.90;;;;;;5035096;28;20026;-66
2023/08/30 06:04:51;;;;;;;31.73;22.30;;;14.00;99.90;;;;;;5029407;28;20026;-66
2023/08/30 06:07:17;;;;;;;30.58;20.65;;;14.30;99.90;;;;;;5033352;28;20045;-66
2023/08/30 06:09:42;;;;;;;25.75;19.23;;;14.40;99.90;;;;;;5033302;28;20167;-68
2023/08/30 06:12:08;;;;;;;22.38;18.65;;;14.60;99.90;;;;;;5032984;28;20055;-66
2023/08/30 06:14:34;;;;;;;24.38;17.27;;;14.70;99.90;;;;;;5034286;28;20033;-67
2023/08/30 06:16:59;;;;;;;23.77;16.90;;;14.90;99.90;;;;;;5034011;28;20053;-66
2023/08/30 06:19:25;;;;;;;21.40;14.90;;;15.20;99.90;;;;;;5033781;28;20030;-67
2023/08/30 06:21:51;;;;;;;21.83;15.07;;;15.40;99.90;;;;;;5033378;28;20034;-66
2023/08/30 06:24:16;;;;;;;20.67;15.23;;;15.70;99.90;;;;;;5033919;28;20030;-75
2023/08/30 06:26:42;;;;;;;18.77;14.32;;;16.20;99.90;;;;;;5033520;28;20526;-66
2023/08/30 06:29:07;;;;;;;20.05;14.95;;;16.40;99.90;;;;;;5033226;28;20029;-66
2023/08/30 06:31:33;;;;;;;21.67;14.77;;;16.70;99.90;;;;;;5034955;28;20450;-66
2023/08/30 06:33:59;;;;;;;16.98;14.90;;;17.10;99.90;;;;;;5034244;28;20029;-66
2023/08/30 06:36:24;;;;;;;25.52;16.92;;;17.30;99.90;;;;;;5033046;28;20570;-67
2023/08/30 06:38:50;;;;;;;20.63;16.33;;;17.80;61.20;;;;;;5033369;28;20029;-66
2023/08/30 06:41:16;;;;;;;21.42;18.05;;;18.20;17.60;;;;;;5033056;28;20468;-67
2023/08/30 06:43:41;;;;;;;22.23;19.13;;;18.00;1.00;;;;;;5030857;28;20108;-67
2023/08/30 06:46:07;;;;;;;23.63;19.00;;;18.20;1.00;;;;;;5032154;28;20105;-66
2023/08/30 06:48:33;;;;;;;23.27;19.08;;;18.30;1.00;;;;;;5032361;28;20116;-66
2023/08/30 06:50:59;;;;;;;24.80;20.23;;;18.50;1.00;;;;;;5032906;28;20060;-67
2023/08/30 06:53:26;;;;;;;25.88;18.95;;;18.60;1.00;;;;;;5033591;28;20046;-66
2023/08/30 06:56:07;;;;;;;25.23;19.65;;;18.80;1.00;;;;;;5033063;28;20041;-66
2023/08/30 06:58:32;;;;;;;24.52;19.20;;;18.90;1.00;;;;;;5032943;28;20076;-66
2023/08/30 07:00:58;;;;;;;22.52;19.13;;;19.20;1.00;;;;;;5033728;28;20131;-66
2023/08/30 07:03:24;;;;;;;25.95;19.85;;;19.80;99.90;;;;;;5033450;28;20496;-67
2023/08/30 07:05:51;;;;;;;27.50;19.65;;;19.90;99.90;;;;;;5033908;28;20108;-67
2023/08/30 07:08:17;;;;;;;27.92;18.50;;;20.20;99.90;;;;;;5032620;28;20438;-67
2023/08/30 07:10:43;;;;;;;24.73;18.85;;;20.50;99.90;;;;;;5032481;28;20037;-68
2023/08/30 07:13:12;;;;;;;21.13;18.83;;;20.30;99.90;;;;;;5033750;28;20041;-68
2023/08/30 07:15:39;;;;;;;24.73;18.95;;;21.10;99.90;;;;;;5011806;28;20395;-68
2023/08/30 07:18:05;;;;;;;21.20;18.92;;;21.70;1.00;;;;;;5012520;28;20038;-70
2023/08/30 07:20:31;;;;;;;20.38;18.08;;;21.60;1.00;;;;;;5004468;28;20550;-68
2023/08/30 07:22:57;;;;;;;21.33;18.85;;;21.40;99.90;;;;;;5013024;28;20022;-68
2023/08/30 07:25:24;;;;;;;21.75;19.17;;;21.30;18.90;;;;;;5013029;28;20030;-68
2023/08/30 07:27:50;;;;;;;23.15;19.60;;;21.20;54.00;;;;;;4994122;28;20026;-67
2023/08/30 07:30:15;;;;;;;23.40;19.05;;;21.30;99.90;;;;;;5007064;28;20040;-68
2023/08/30 07:32:41;;;;;;;22.05;18.42;;;21.40;99.90;;;;;;5013531;28;20030;-67
2023/08/30 07:35:07;;;;;;;21.27;18.95;;;21.40;99.90;;;;;;5016933;28;20400;-67
2023/08/30 07:37:35;;;;;;;24.05;19.60;;;22.60;1.00;;;;;;5017269;28;20044;-67
2023/08/30 07:40:00;;;;;;;26.55;19.73;;;22.60;84.20;;;;;;5017560;28;20061;-67
2023/08/30 07:42:26;;;;;;;22.17;18.88;;;23.40;99.90;;;;;;5016497;28;20034;-68
2023/08/30 07:44:52;;;;;;;23.20;18.63;;;23.80;1.00;;;;;;5017440;28;20049;-67
2023/08/30 07:47:17;;;;;;;21.80;18.85;;;23.60;99.90;;;;;;5017177;28;20030;-67
2023/08/30 07:49:43;;;;;;;25.60;18.98;;;23.30;99.90;;;;;;5017848;28;20127;-67
2023/08/30 07:52:10;;;;;;;22.13;18.00;;;24.00;99.90;;;;;;5017533;28;20030;-67
2023/08/30 07:54:38;;;;;;;22.45;19.10;;;24.10;1.00;;;;;;5017340;28;20435;-68
2023/08/30 07:57:04;;;;;;;20.38;18.15;;;24.40;99.90;;;;;;5016280;28;20049;-68
2023/08/30 07:59:32;;;;;;;22.88;19.58;;;24.30;1.00;;;;;;5015904;28;20026;-68
2023/08/30 08:01:57;;;;;;;22.27;19.92;;;24.50;99.90;;;;;;5017099;28;20025;-68
2023/08/30 08:04:23;;;;;;;20.52;18.08;;;23.80;99.90;;;;;;5017469;28;20350;-68
2023/08/30 08:06:49;;;;;;;21.33;19.05;;;24.60;1.00;;;;;;5017783;28;20112;-68
2023/08/30 08:09:15;;;;;;;21.75;18.75;;;24.40;99.90;;;;;;5016674;28;20037;-68
2023/08/30 08:11:43;;;;;;;21.67;19.35;;;24.40;99.90;;;;;;5015823;28;20464;-68
2023/08/30 08:14:11;;;;;;;21.63;19.20;;;24.90;1.00;;;;;;5016896;28;20061;-68
2023/08/30 08:16:37;;;;;;;20.95;18.77;;;25.10;1.00;;;;;;5016190;28;20054;-68
2023/08/30 08:19:03;;;;;;;21.67;19.13;;;24.70;1.00;;;;;;5016226;28;20076;-68
2023/08/30 08:21:29;;;;;;;25.48;21.17;;;24.40;99.90;;;;;;5016195;28;20029;-68
2023/08/30 08:23:54;;;;;;;24.35;19.65;;;23.30;1.00;;;;;;5016208;28;20479;-68
2023/08/30 08:26:20;;;;;;;21.77;19.17;;;23.10;99.90;;;;;;5015701;28;20488;-68
2023/08/30 08:28:46;;;;;;;25.70;20.52;;;23.30;99.90;;;;;;5016698;28;20036;-68
2023/08/30 08:31:11;;;;;;;24.27;19.85;;;23.00;99.90;;;;;;5016103;28;20029;-67
2023/08/30 08:33:37;;;;;;;23.13;20.08;;;22.50;1.00;;;;;;5017306;28;20030;-67
2023/08/30 08:36:03;;;;;;;22.58;19.58;;;22.70;1.00;;;;;;5016470;28;20511;-67
2023/08/30 08:38:28;;;;;;;24.10;20.15;;;22.90;1.00;;;;;;5016664;28;20037;-67
2023/08/30 08:41:04;;;;;;;26.02;21.75;;;22.50;99.90;;;;;;5015823;28;20022;-67
2023/08/30 08:43:32;;;;;;;24.92;21.92;;;22.60;99.90;;;;;;5015776;28;20041;-67
2023/08/30 08:46:00;;;;;;;24.17;21.23;;;22.30;11.60;;;;;;5014622;28;20022;-67
2023/08/30 08:48:29;;;;;;;22.77;19.42;;;22.20;99.90;;;;;;5015798;28;20030;-67
2023/08/30 08:50:56;;;;;;;18.77;15.63;;;22.00;1.00;;;;;;5015250;28;20030;-68
2023/08/30 08:53:23;;;;;;;22.75;15.68;;;22.00;99.90;;;;;;5014294;28;20030;-68
2023/08/30 08:55:49;;;;;;;18.13;14.57;;;22.00;99.90;;;;;;5015442;28;20121;-67
2023/08/30 08:58:15;;;;;;;17.58;15.10;;;22.00;22.60;;;;;;5015260;28;20061;-67
2023/08/30 09:00:42;;;;;;;19.52;16.58;;;21.40;97.10;;;;;;5015493;28;20026;-67
2023/08/30 09:03:09;;;;;;;25.48;17.92;;;21.00;99.90;;;;;;5015471;28;20109;-67
2023/08/30 09:05:37;;;;;;;20.30;16.88;;;20.90;89.30;;;;;;5015298;28;20140;-67
2023/08/30 09:08:04;;;;;;;15.88;13.45;;;21.10;99.90;;;;;;5015186;28;20506;-66
2023/08/30 09:10:33;;;;;;;17.42;13.18;;;21.00;99.90;;;;;;5015068;28;20037;-66
2023/08/30 09:12:59;;;;;;;19.20;12.73;;;20.60;99.90;;;;;;5016498;28;20034;-66
2023/08/30 09:15:32;;;;;;;16.58;10.73;;;20.60;99.90;;;;;;5015283;28;20034;-66
2023/08/30 09:17:58;;;;;;;13.45;10.70;;;20.70;99.90;;;;;;5014332;28;20561;-66
2023/08/30 09:20:24;;;;;;;10.68;7.68;;;21.30;99.90;;;;;;5014503;28;20033;-67
2023/08/30 09:22:50;;;;;;;11.15;8.68;;;21.40;1.00;;;;;;5015053;28;20484;-67
2023/08/30 09:25:31;;;;;;;11.80;7.70;;;21.40;53.90;;;;;;5015255;28;20096;-66
2023/08/30 09:27:59;;;;;;;8.68;7.25;;;21.40;99.90;;;;;;5014561;28;20044;-66
2023/08/30 09:30:26;;;;;;;12.57;7.85;;;21.00;1.00;;;;;;5015463;28;20038;-66
2023/08/30 09:32:51;;;;;;;9.88;7.35;;;20.70;15.40;;;;;;5013707;28;20041;-66
2023/08/30 09:35:17;;;;;;;11.43;8.20;;;20.40;99.90;;;;;;5014838;28;20046;-66
2023/08/30 09:37:46;;;;;;;11.32;8.48;;;20.20;99.90;;;;;;5014552;28;20038;-67
2023/08/30 09:40:18;;;;;;;10.40;8.20;;;19.90;10.80;;;;;;5015700;28;20037;-66
2023/08/30 09:42:43;;;;;;;11.65;8.82;;;19.90;99.90;;;;;;5015614;28;20021;-66
2023/08/30 09:45:26;;;;;;;12.32;8.30;;;19.70;99.90;;;;;;5015630;28;20113;-66
2023/08/30 09:47:53;;;;;;;12.40;8.43;;;19.70;1.00;;;;;;5014638;28;20033;-68
2023/08/30 09:50:20;;;;;;;11.57;7.45;;;19.50;99.90;;;;;;5014818;28;20120;-66
2023/08/30 09:52:48;;;;;;;9.57;7.40;;;19.30;1.00;;;;;;5015480;28;20061;-66
2023/08/30 09:55:15;;;;;;;12.05;7.20;;;19.20;99.90;;;;;;5014170;28;20034;-68
2023/08/30 09:57:42;;;;;;;13.40;7.50;;;19.00;1.00;;;;;;5013767;28;20084;-66
2023/08/30 10:00:12;;;;;;;13.35;7.82;;;18.90;99.90;;;;;;5014279;28;20058;-66
2023/08/30 10:02:40;;;;;;;13.13;8.13;;;18.90;1.00;;;;;;5014764;28;21202;-67
2023/08/30 10:05:08;;;;;;;11.68;7.57;;;18.80;99.90;;;;;;5014369;28;20025;-67
2023/08/30 10:07:36;;;;;;;11.32;7.05;;;18.90;99.90;;;;;;5013703;28;20622;-68
2023/08/30 10:10:04;;;;;;;13.68;7.70;;;18.70;99.90;;;;;;5014391;28;20396;-67
2023/08/30 10:12:32;;;;;;;15.45;7.80;;;18.80;1.00;;;;;;5013357;28;20048;-67
2023/08/30 10:14:57;;;;;;;11.15;7.90;;;18.80;99.90;;;;;;5014295;28;20040;-67
2023/08/30 10:17:27;;;;;;;10.15;7.10;;;18.90;99.90;;;;;;5014139;28;20047;-67
2023/08/30 10:19:55;;;;;;;8.45;6.22;;;19.00;76.50;;;;;;5014141;28;20117;-67
2023/08/30 10:22:22;;;;;;;12.27;6.60;;;19.20;99.90;;;;;;5012468;28;20028;-67
2023/08/30 10:24:55;;;;;;;9.07;6.20;;;19.20;99.90;;;;;;5012053;28;20037;-68
2023/08/30 10:27:22;;;;;;;;;;;19.50;99.90;;;;;;5013295;28;20050;-68
2023/08/30 10:29:49;;;;;;;10.85;6.07;;;19.40;99.90;;;;;;5013038;28;19972;-67
2023/08/30 10:32:21;;;;;;;10.75;6.07;;;19.40;99.90;;;;;;5013049;28;20551;-68
2023/08/30 10:34:49;;;;;;;9.48;5.50;;;19.50;1.00;;;;;;5012722;28;20117;-67
2023/08/30 10:37:15;;;;;;;10.52;5.75;;;19.40;99.90;;;;;;5014099;28;20037;-67
2023/08/30 10:39:42;;;;;;;8.57;5.50;;;19.20;1.00;;;;;;5012370;28;20472;-67
2023/08/30 10:42:10;;;;;;;8.10;5.22;;;19.20;99.90;;;;;;5013591;28;20033;-69
2023/08/30 10:45:02;;;;;;;13.48;6.03;;;19.00;99.90;;;;;;4994537;28;20023;-67
2023/08/30 10:47:29;;;;;;;9.32;5.55;;;19.00;1.00;;;;;;5007229;28;20030;-68
2023/08/30 10:50:04;;;;;;;8.38;5.18;;;19.00;1.00;;;;;;5013160;28;20056;-67
2023/08/30 10:52:30;;;;;;;9.98;5.40;;;18.90;99.90;;;;;;4999263;28;20034;-68
2023/08/30 10:55:14;;;;;;;9.55;5.50;;;18.80;99.90;;;;;;5013690;28;20030;-67
2023/08/30 10:57:44;;;;;;;9.98;5.47;;;18.70;99.90;;;;;;5013501;28;20129;-67
2023/08/30 11:00:19;;;;;;;10.85;5.30;;;18.70;1.00;;;;;;5013137;28;20391;-67
2023/08/30 11:02:47;;;;;;;12.10;6.05;;;18.60;99.90;;;;;;5012900;28;20036;-68
2023/08/30 11:05:14;;;;;;;9.48;5.22;;;18.70;1.00;;;;;;5013429;28;20030;-67
2023/08/30 11:07:40;;;;;;;12.18;6.50;;;18.60;99.90;;;;;;5012716;28;20117;-67
2023/08/30 11:10:06;;;;;;;10.68;6.38;;;18.60;99.90;;;;;;5012713;28;20440;-67
2023/08/30 11:12:33;;;;;;;9.82;6.25;;;18.40;1.00;;;;;;5012375;28;20029;-67
2023/08/30 11:14:58;;;;;;;12.00;6.80;;;18.20;1.00;;;;;;5012431;28;20030;-71
2023/08/30 11:17:25;;;;;;;9.75;7.10;;;18.00;1.00;;;;;;5011636;28;20045;-68
2023/08/30 11:19:58;;;;;;;14.32;7.35;;;17.90;1.00;;;;;;5013029;28;20046;-67
2023/08/30 11:22:25;;;;;;;11.32;7.20;;;17.80;1.00;;;;;;5012776;28;20026;-67
2023/08/30 11:24:51;;;;;;;12.70;8.05;;;17.60;1.00;;;;;;5012239;28;20026;-68
2023/08/30 11:27:18;;;;;;;10.60;8.25;;;17.50;6.60;;;;;;5013093;28;20026;-68
2023/08/30 11:29:43;;;;;;;12.38;8.05;;;17.50;1.00;;;;;;5011286;28;20381;-67
2023/08/30 11:32:09;;;;;;;11.75;8.35;;;17.40;6.50;;;;;;5012547;28;20037;-67
2023/08/30 11:34:35;;;;;;;14.80;11.10;;;17.40;19.60;;;;;;5012201;28;20025;-67
2023/08/30 11:37:00;;;;;;;20.67;15.38;;;17.20;46.10;;;;;;5012228;28;20122;-69
2023/08/30 11:39:28;;;;;;;24.42;16.90;;;16.70;99.90;;;;;;5012170;28;20038;-70
2023/08/30 11:41:54;;;;;;;22.25;18.85;;;16.40;99.90;;;;;;5012395;28;20392;-68
2023/08/30 11:44:23;;;;;;;25.95;18.98;;;16.40;99.90;;;;;;5013114;28;20041;-68
2023/08/30 11:46:49;;;;;;;26.30;19.85;;;16.30;99.90;;;;;;5013094;28;20034;-69
2023/08/30 11:49:16;;;;;;;25.10;21.00;;;16.30;99.90;;;;;;5011757;28;20129;-68
2023/08/30 11:51:42;;;;;;;27.00;22.17;;;16.20;99.90;;;;;;5012154;28;20480;-68
2023/08/30 11:54:08;;;;;;;26.10;21.40;;;16.10;99.90;;;;;;5012238;28;20032;-68
2023/08/30 11:56:35;;;;;;;27.52;23.95;;;16.00;99.90;;;;;;5012492;28;20030;-68
2023/08/30 11:59:02;;;;;;;30.40;24.88;;;15.90;99.90;;;;;;5012569;28;20022;-69
2023/08/30 12:01:28;;;;;;;31.20;23.30;;;15.90;99.90;;;;;;5012649;28;20038;-68
2023/08/30 12:03:54;;;;;;;24.02;20.55;;;15.90;99.90;;;;;;5013098;28;20033;-69
2023/08/30 12:06:23;;;;;;;27.45;21.40;;;15.80;99.90;;;;;;5012144;28;20062;-68
2023/08/30 12:08:57;;;;;;;27.05;21.98;;;15.90;99.90;;;;;;5012741;28;20060;-69
2023/08/30 12:11:22;;;;;;;23.92;20.70;;;16.00;99.90;;;;;;5012785;28;20403;-68
2023/08/30 12:13:48;;;;;;;25.25;21.35;;;15.90;99.90;;;;;;5012224;28;20116;-68
2023/08/30 12:16:17;;;;;;;26.73;23.38;;;15.90;99.90;;;;;;5012566;28;20041;-68
2023/08/30 12:18:43;;;;;;;26.15;22.65;;;15.90;99.90;;;;;;5010761;28;20032;-68
2023/08/30 12:21:09;;;;;;;26.52;23.00;;;16.00;99.90;;;;;;5012633;28;20033;-69
2023/08/30 12:23:34;;;;;;;27.67;23.30;;;16.00;99.90;;;;;;5015476;28;20602;-68
2023/08/30 12:26:03;;;;;;;30.33;24.63;;;16.10;99.90;;;;;;5015757;28;20057;-68
2023/08/30 12:28:30;;;;;;;27.80;22.92;;;15.90;99.90;;;;;;5017594;28;20034;-68
2023/08/30 12:30:56;;;;;;;27.40;23.42;;;15.90;99.90;;;;;;5032280;28;20514;-68